createdAt,value
2018-10-03T00:03:40.619Z,96212.00
2018-10-03T00:09:10.869Z,96203.00
2018-10-03T00:14:40.939Z,96207.00
2018-10-03T00:20:11.013Z,96211.00
2018-10-03T00:25:40.491Z,96200.00
2018-10-03T00:31:10.749Z,96209.00
2018-10-03T00:36:40.051Z,96204.00
2018-10-03T00:42:09.584Z,96212.00
2018-10-03T00:47:39.052Z,96201.00
2018-10-03T00:53:09.512Z,96194.00
2018-10-03T00:58:38.836Z,96201.00
2018-10-03T01:04:08.508Z,96202.00
2018-10-03T01:09:37.756Z,96191.00
2018-10-03T01:15:07.306Z,96195.00
2018-10-03T01:20:36.570Z,96181.00
2018-10-03T01:26:05.934Z,96184.00
2018-10-03T01:31:35.224Z,96181.00
2018-10-03T01:37:04.581Z,96191.00
2018-10-03T01:42:33.824Z,96199.00
2018-10-03T01:48:03.056Z,96197.00
2018-10-03T01:53:32.681Z,96183.00
2018-10-03T01:59:02.148Z,96203.00
2018-10-03T02:04:31.466Z,96202.00
2018-10-03T02:10:00.898Z,96203.00
2018-10-03T02:15:30.230Z,96208.00
2018-10-03T02:21:00.610Z,96210.00
2018-10-03T02:26:29.880Z,96213.00
2018-10-03T02:31:59.156Z,96218.00
2018-10-03T02:37:28.597Z,96216.00
2018-10-03T02:42:57.897Z,96217.00
2018-10-03T02:48:28.160Z,96209.00
2018-10-03T02:53:57.480Z,96209.00
2018-10-03T02:59:26.775Z,96210.00
2018-10-03T03:04:56.017Z,96216.00
2018-10-03T03:10:25.317Z,96219.00
2018-10-03T03:15:54.575Z,96230.00
2018-10-03T03:21:23.851Z,96221.00
2018-10-03T03:26:53.258Z,96231.00
2018-10-03T03:32:22.512Z,96235.00
2018-10-03T03:37:51.890Z,96232.00
2018-10-03T03:43:21.146Z,96230.00
2018-10-03T03:48:51.500Z,96233.00
2018-10-03T03:54:20.737Z,96239.00
2018-10-03T03:59:50.077Z,96231.00
2018-10-03T04:05:19.401Z,96247.00
2018-10-03T04:10:49.860Z,96245.00
2018-10-03T04:16:19.181Z,96242.00
2018-10-03T04:21:48.563Z,96257.00
2018-10-03T04:27:17.876Z,96252.00
2018-10-03T04:32:47.165Z,96262.00
2018-10-03T04:38:16.519Z,96259.00
2018-10-03T04:43:45.857Z,96268.00
2018-10-03T04:49:15.074Z,96268.00
2018-10-03T04:54:44.418Z,96262.00
2018-10-03T05:00:13.758Z,96269.00
2018-10-03T05:05:43.113Z,96262.00
2018-10-03T05:11:12.554Z,96250.00
2018-10-03T05:16:41.793Z,96254.00
2018-10-03T05:22:11.044Z,96247.00
2018-10-03T05:27:40.472Z,96254.00
2018-10-03T05:33:09.729Z,96239.00
2018-10-03T05:38:39.029Z,96254.00
2018-10-03T05:44:08.664Z,96256.00
2018-10-03T05:49:37.909Z,96256.00
2018-10-03T05:55:08.467Z,96264.00
2018-10-03T06:00:37.910Z,96276.00
2018-10-03T06:06:08.171Z,96273.00
2018-10-03T06:11:37.554Z,96277.00
2018-10-03T06:17:07.122Z,96284.00
2018-10-03T06:22:36.672Z,96282.00
2018-10-03T06:28:06.299Z,96286.00
2018-10-03T06:33:35.696Z,96289.00
2018-10-03T06:39:08.469Z,96300.00
2018-10-03T06:44:37.959Z,96318.00
2018-10-03T06:50:07.535Z,96312.00
2018-10-03T06:55:36.800Z,96321.00
2018-10-03T07:01:06.112Z,96311.00
2018-10-03T07:06:35.514Z,96314.00
2018-10-03T07:12:05.188Z,96316.00
2018-10-03T07:17:34.812Z,96329.00
2018-10-03T07:23:04.461Z,96331.00
2018-10-03T07:28:34.258Z,96336.00
2018-10-03T07:34:03.894Z,96343.00
2018-10-03T07:39:33.326Z,96336.00
2018-10-03T07:45:04.460Z,96350.00
2018-10-03T07:50:33.882Z,96342.00
2018-10-03T07:56:04.381Z,96365.00
2018-10-03T08:01:33.929Z,96371.00
2018-10-03T08:07:05.275Z,96365.00
2018-10-03T08:12:35.388Z,96377.00
2018-10-03T08:18:04.835Z,96372.00
2018-10-03T08:23:36.277Z,96379.00
2018-10-03T08:29:06.040Z,96378.00
2018-10-03T08:34:35.568Z,96379.00
2018-10-03T08:40:06.178Z,96386.00
2018-10-03T08:45:35.776Z,96381.00
2018-10-03T08:51:06.059Z,96389.00
2018-10-03T08:56:35.510Z,96370.00
2018-10-03T09:02:04.964Z,96374.00
2018-10-03T09:07:34.462Z,96367.00
2018-10-03T09:13:04.060Z,96385.00
2018-10-03T09:18:33.518Z,96369.00
2018-10-03T09:24:03.156Z,96383.00
2018-10-03T09:29:33.479Z,96389.00
2018-10-03T09:35:03.228Z,96398.00
2018-10-03T09:40:32.653Z,96406.00
2018-10-03T09:46:02.273Z,96422.00
2018-10-03T09:51:31.611Z,96421.00
2018-10-03T09:57:05.028Z,96427.00
2018-10-03T10:02:34.452Z,96415.00
2018-10-03T10:08:03.950Z,96427.00
2018-10-03T10:13:33.285Z,96438.00
2018-10-03T10:19:02.643Z,96416.00
2018-10-03T10:24:32.208Z,96429.00
2018-10-03T10:30:01.608Z,96430.00
2018-10-03T10:35:30.917Z,96420.00
2018-10-03T10:41:04.104Z,96404.00
2018-10-03T10:46:33.586Z,96413.00
2018-10-03T10:52:02.914Z,96404.00
2018-10-03T10:57:32.433Z,96426.00
2018-10-03T11:03:01.878Z,96420.00
2018-10-03T11:08:31.490Z,96418.00
2018-10-03T11:14:00.948Z,96402.00
2018-10-03T11:19:31.533Z,96408.00
2018-10-03T11:25:02.246Z,96412.00
2018-10-03T11:30:32.559Z,96415.00
2018-10-03T11:36:04.648Z,96407.00
2018-10-03T11:41:35.948Z,96411.00
2018-10-03T11:47:05.711Z,96412.00
2018-10-03T11:52:35.301Z,96416.00
2018-10-03T11:58:05.241Z,96410.00
2018-10-03T12:03:38.449Z,96413.00
2018-10-03T12:09:11.197Z,96414.00
2018-10-03T12:14:40.570Z,96410.00
2018-10-03T12:20:10.302Z,96412.00
2018-10-03T12:25:40.761Z,96427.00
2018-10-03T12:31:10.443Z,96429.00
2018-10-03T12:36:41.904Z,96428.00
2018-10-03T12:42:16.290Z,96437.00
2018-10-03T12:47:45.700Z,96430.00
2018-10-03T12:53:15.352Z,96435.00
2018-10-03T12:58:44.696Z,96437.00
2018-10-03T13:04:18.858Z,96437.00
2018-10-03T13:09:48.455Z,96425.00
2018-10-03T13:15:18.029Z,96426.00
2018-10-03T13:20:47.899Z,96427.00
2018-10-03T13:26:24.399Z,96432.00
2018-10-03T13:31:54.860Z,96437.00
2018-10-03T13:37:24.193Z,96441.00
2018-10-03T13:42:56.096Z,96437.00
2018-10-03T13:48:28.274Z,96441.00
2018-10-03T13:53:58.401Z,96432.00
2018-10-03T13:59:39.945Z,96440.00
2018-10-03T14:05:13.534Z,96431.00
2018-10-03T14:10:50.289Z,96440.00
2018-10-03T14:16:19.838Z,96452.00
2018-10-03T14:21:49.934Z,96466.00
2018-10-03T14:27:19.776Z,96463.00
2018-10-03T14:32:50.387Z,96466.00
2018-10-03T14:38:20.698Z,96456.00
2018-10-03T14:43:52.084Z,96467.00
2018-10-03T14:49:21.829Z,96471.00
2018-10-03T14:54:54.669Z,96479.00
2018-10-03T15:00:26.357Z,96484.00
2018-10-03T15:05:55.845Z,96479.00
2018-10-03T15:11:27.292Z,96485.00
2018-10-03T15:16:58.767Z,96473.00
2018-10-03T15:22:31.819Z,96468.00
2018-10-03T15:28:06.981Z,96471.00
2018-10-03T15:33:38.422Z,96474.00
2018-10-03T15:39:10.127Z,96479.00
2018-10-03T15:44:39.647Z,96473.00
2018-10-03T15:50:09.947Z,96489.00
2018-10-03T15:55:43.154Z,96507.00
2018-10-03T16:01:13.103Z,96498.00
2018-10-03T16:06:42.729Z,96502.00
2018-10-03T16:12:12.128Z,96503.00
2018-10-03T16:17:41.495Z,96518.00
2018-10-03T16:23:10.780Z,96530.00
2018-10-03T16:28:40.222Z,96530.00
2018-10-03T16:34:09.759Z,96538.00
2018-10-03T16:39:39.131Z,96551.00
2018-10-03T16:45:12.538Z,96556.00
2018-10-03T16:50:41.820Z,96560.00
2018-10-03T16:56:11.309Z,96567.00
2018-10-03T17:01:40.783Z,96567.00
2018-10-03T17:07:10.193Z,96569.00
2018-10-03T17:12:39.950Z,96568.00
2018-10-03T17:18:09.185Z,96561.00
2018-10-03T17:23:38.578Z,96577.00
2018-10-03T17:29:07.877Z,96583.00
2018-10-03T17:34:37.205Z,96592.00
2018-10-03T17:40:07.267Z,96590.00
2018-10-03T17:45:36.812Z,96596.00
2018-10-03T17:51:06.524Z,96606.00
2018-10-03T17:56:37.883Z,96599.00
2018-10-03T18:02:13.282Z,96604.00
2018-10-03T18:07:42.941Z,96614.00
2018-10-03T18:13:12.514Z,96618.00
2018-10-03T18:18:42.000Z,96621.00
2018-10-03T18:24:12.105Z,96632.00
2018-10-03T18:29:43.759Z,96630.00
2018-10-03T18:35:15.046Z,96638.00
2018-10-03T18:40:45.487Z,96646.00
2018-10-03T18:46:15.255Z,96642.00
2018-10-03T18:51:44.969Z,96644.00
2018-10-03T18:57:14.531Z,96643.00
2018-10-03T19:02:45.181Z,96652.00
2018-10-03T19:08:14.532Z,96657.00
2018-10-03T19:13:44.651Z,96654.00
2018-10-03T19:19:14.310Z,96651.00
2018-10-03T19:24:43.820Z,96651.00
2018-10-03T19:30:13.162Z,96651.00
2018-10-03T19:35:44.240Z,96647.00
2018-10-03T19:41:13.566Z,96650.00
2018-10-03T19:46:43.234Z,96657.00
2018-10-03T19:52:12.804Z,96656.00
2018-10-03T19:57:42.272Z,96660.00
2018-10-03T20:03:11.746Z,96661.00
2018-10-03T20:08:41.191Z,96662.00
2018-10-03T20:14:10.520Z,96651.00
2018-10-03T20:19:40.013Z,96659.00
2018-10-03T20:25:09.413Z,96664.00
2018-10-03T20:30:38.975Z,96666.00
2018-10-03T20:36:08.698Z,96679.00
2018-10-03T20:41:38.428Z,96674.00
2018-10-03T20:47:07.717Z,96669.00
2018-10-03T20:52:37.139Z,96675.00
2018-10-03T20:58:06.580Z,96670.00
2018-10-03T21:03:35.945Z,96666.00
2018-10-03T21:09:07.530Z,96662.00
2018-10-03T21:14:36.932Z,96666.00
2018-10-03T21:20:06.307Z,96663.00
2018-10-03T21:25:35.859Z,96670.00
2018-10-03T21:31:05.301Z,96654.00
2018-10-03T21:36:34.797Z,96669.00
2018-10-03T21:42:04.261Z,96662.00
2018-10-03T21:47:33.581Z,96662.00
2018-10-03T21:53:03.008Z,96661.00
2018-10-03T21:58:32.285Z,96656.00
2018-10-03T22:04:01.645Z,96654.00
2018-10-03T22:09:30.960Z,96659.00
2018-10-03T22:15:00.385Z,96659.00
2018-10-03T22:20:29.685Z,96657.00
2018-10-03T22:25:59.088Z,96661.00
2018-10-03T22:31:28.328Z,96665.00
2018-10-03T22:36:57.673Z,96662.00
2018-10-03T22:42:26.992Z,96659.00
2018-10-03T22:47:56.287Z,96652.00
2018-10-03T22:53:25.573Z,96670.00
2018-10-03T22:58:54.941Z,96669.00
2018-10-03T23:04:24.363Z,96670.00
2018-10-03T23:09:53.690Z,96672.00
2018-10-03T23:15:23.094Z,96674.00
2018-10-03T23:20:52.485Z,96679.00
2018-10-03T23:26:22.032Z,96676.00
2018-10-03T23:31:51.516Z,96678.00
2018-10-03T23:37:20.852Z,96688.00
2018-10-03T23:42:50.385Z,96697.00
2018-10-03T23:48:19.642Z,96690.00
2018-10-03T23:53:49.033Z,96702.00
2018-10-03T23:59:18.484Z,96695.00
